createdAt,value
2022-08-10T00:00:53.790Z,13.93
2022-08-10T00:03:22.729Z,12.03
2022-08-10T00:05:52.716Z,17.93
2022-08-10T00:08:24.125Z,21.83
2022-08-10T00:10:52.576Z,11.33
2022-08-10T00:13:20.134Z,13.00
2022-08-10T00:15:53.874Z,11.17
2022-08-10T00:18:31.439Z,12.43
2022-08-10T00:21:03.571Z,8.10
2022-08-10T00:23:31.174Z,10.57
2022-08-10T00:25:58.939Z,12.20
2022-08-10T00:28:26.757Z,9.07
2022-08-10T00:30:54.511Z,10.47
2022-08-10T00:33:23.868Z,10.73
2022-08-10T00:35:52.264Z,7.80
2022-08-10T00:38:19.845Z,9.60
2022-08-10T00:40:47.456Z,15.73
2022-08-10T00:43:15.085Z,14.67
2022-08-10T00:45:59.078Z,7.23
2022-08-10T00:48:30.870Z,9.83
2022-08-10T00:50:59.305Z,14.20
2022-08-10T00:53:27.237Z,7.77
2022-08-10T00:57:12.301Z,11.93
2022-08-10T00:58:43.296Z,11.63
2022-08-10T01:02:07.386Z,8.83
2022-08-10T01:04:36.230Z,9.50
2022-08-10T01:06:54.314Z,10.47
2022-08-10T01:09:27.490Z,11.93
2022-08-10T01:12:39.131Z,10.17
2022-08-10T01:14:51.742Z,13.87
2022-08-10T01:17:23.038Z,15.57
2022-08-10T01:20:30.470Z,7.27
2022-08-10T01:23:19.584Z,10.63
2022-08-10T01:26:10.365Z,11.37
2022-08-10T01:28:46.694Z,9.57
2022-08-10T01:31:18.657Z,14.50
2022-08-10T01:34:02.476Z,17.53
2022-08-10T01:36:32.875Z,19.30
2022-08-10T01:39:03.694Z,9.47
2022-08-10T01:41:45.513Z,9.50
2022-08-10T01:44:15.265Z,11.17
2022-08-10T01:46:47.891Z,9.47
2022-08-10T01:49:19.416Z,15.27
2022-08-10T01:51:50.819Z,13.57
2022-08-10T01:54:21.104Z,12.63
2022-08-10T01:56:50.651Z,9.37
2022-08-10T01:59:22.038Z,10.63
2022-08-10T02:01:53.343Z,15.17
2022-08-10T02:04:21.913Z,14.47
2022-08-10T02:06:50.618Z,11.63
2022-08-10T02:09:19.484Z,14.00
2022-08-10T02:12:06.611Z,10.87
2022-08-10T02:14:37.266Z,16.23
2022-08-10T02:17:09.055Z,10.60
2022-08-10T02:19:59.395Z,13.73
2022-08-10T02:22:36.074Z,12.53
2022-08-10T02:25:07.911Z,12.97
2022-08-10T02:27:36.748Z,13.70
2022-08-10T02:30:05.138Z,9.60
2022-08-10T02:32:38.318Z,11.73
2022-08-10T02:35:13.935Z,11.30
2022-08-10T02:37:50.509Z,12.70
2022-08-10T02:45:02.062Z,12.33
2022-08-10T02:45:29.225Z,11.20
2022-08-10T02:46:00.878Z,10.13
2022-08-10T02:48:34.158Z,9.10
2022-08-10T02:51:06.317Z,17.67
2022-08-10T02:53:55.169Z,10.73
2022-08-10T02:56:27.197Z,13.87
2022-08-10T02:58:57.910Z,16.53
2022-08-10T03:01:27.241Z,15.43
2022-08-10T03:04:00.742Z,12.13
2022-08-10T03:06:33.708Z,12.00
2022-08-10T03:09:03.052Z,13.37
2022-08-10T03:12:36.608Z,11.90
2022-08-10T03:14:21.347Z,14.10
2022-08-10T03:16:49.741Z,12.63
2022-08-10T03:20:33.703Z,9.47
2022-08-10T03:22:09.605Z,13.90
2022-08-10T03:24:37.952Z,14.93
2022-08-10T03:27:06.074Z,15.53
2022-08-10T03:30:29.938Z,13.80
2022-08-10T03:32:23.146Z,13.90
2022-08-10T03:34:52.776Z,12.00
2022-08-10T03:37:20.485Z,12.90
2022-08-10T03:39:48.100Z,12.17
2022-08-10T03:42:16.265Z,11.63
2022-08-10T03:44:48.631Z,13.03
2022-08-10T03:47:18.730Z,9.77
2022-08-10T03:49:47.665Z,20.50
2022-08-10T03:52:17.824Z,14.33
2022-08-10T03:54:46.030Z,13.97
2022-08-10T03:57:13.738Z,18.37
2022-08-10T03:59:41.445Z,11.43
2022-08-10T04:02:44.345Z,19.30
2022-08-10T04:04:57.282Z,14.60
2022-08-10T04:07:26.951Z,10.53
2022-08-10T04:09:58.940Z,13.70
2022-08-10T04:12:26.971Z,12.77
2022-08-10T04:14:54.677Z,12.23
2022-08-10T04:18:04.578Z,12.70
2022-08-10T04:20:14.484Z,13.23
2022-08-10T04:22:44.642Z,15.23
2022-08-10T04:25:14.046Z,10.63
2022-08-10T04:27:41.764Z,11.70
2022-08-10T04:30:10.221Z,12.73
2022-08-10T04:32:38.427Z,14.77
2022-08-10T04:35:10.785Z,14.90
2022-08-10T04:37:47.310Z,12.97
2022-08-10T04:40:28.382Z,12.53
2022-08-10T04:43:07.358Z,14.40
2022-08-10T04:45:48.498Z,15.63
2022-08-10T04:48:40.233Z,12.00
2022-08-10T04:51:10.706Z,13.47
2022-08-10T04:54:03.317Z,12.37
2022-08-10T04:56:32.392Z,14.43
2022-08-10T04:59:00.843Z,15.73
2022-08-10T05:02:21.508Z,15.17
2022-08-10T05:04:35.131Z,10.70
2022-08-10T05:07:04.307Z,12.10
2022-08-10T05:09:32.172Z,9.47
2022-08-10T05:12:01.117Z,13.50
2022-08-10T05:14:28.638Z,11.90
2022-08-10T05:16:56.588Z,13.80
2022-08-10T05:20:04.813Z,11.30
2022-08-10T05:22:12.432Z,10.67
2022-08-10T05:24:39.991Z,12.40
2022-08-10T05:27:10.597Z,12.30
2022-08-10T05:29:38.687Z,9.30
2022-08-10T05:32:06.378Z,12.47
2022-08-10T05:34:34.277Z,13.77
2022-08-10T05:37:02.668Z,16.80
2022-08-10T05:39:32.110Z,17.87
2022-08-10T05:42:01.000Z,28.13
2022-08-10T05:44:30.892Z,11.60
2022-08-10T05:46:58.617Z,12.00
2022-08-10T05:49:26.235Z,11.90
2022-08-10T05:51:54.423Z,17.40
2022-08-10T05:54:21.957Z,12.20
2022-08-10T05:56:55.678Z,18.70
2022-08-10T06:00:35.828Z,11.23
2022-08-10T06:02:32.708Z,14.30
2022-08-10T06:05:07.197Z,11.27
2022-08-10T06:07:35.976Z,12.20
2022-08-10T06:10:03.942Z,9.83
2022-08-10T06:12:53.540Z,10.23
2022-08-10T06:15:51.653Z,13.10
2022-08-10T06:18:13.108Z,10.90
2022-08-10T06:20:40.807Z,16.33
2022-08-10T06:23:08.350Z,20.03
2022-08-10T06:26:10.176Z,15.47
2022-08-10T06:28:25.645Z,12.50
2022-08-10T06:30:54.647Z,16.73
2022-08-10T06:33:24.645Z,20.47
2022-08-10T06:35:53.938Z,16.37
2022-08-10T06:38:22.640Z,19.30
2022-08-10T06:40:50.999Z,17.93
2022-08-10T06:43:20.730Z,22.63
2022-08-10T06:46:07.435Z,13.50
2022-08-10T06:48:40.326Z,16.60
2022-08-10T06:51:09.571Z,25.70
2022-08-10T06:53:52.767Z,10.77
2022-08-10T06:56:37.825Z,17.93
2022-08-10T06:59:14.612Z,11.60
2022-08-10T07:01:51.799Z,17.53
2022-08-10T07:04:32.967Z,12.90
2022-08-10T07:07:04.509Z,11.30
2022-08-10T07:09:33.419Z,10.73
2022-08-10T07:12:07.552Z,8.90
2022-08-10T07:14:38.546Z,13.67
2022-08-10T07:17:07.073Z,10.53
2022-08-10T07:19:36.507Z,6.97
2022-08-10T07:23:08.628Z,8.27
2022-08-10T07:25:08.111Z,9.60
2022-08-10T07:27:39.261Z,10.53
2022-08-10T07:30:25.204Z,14.13
2022-08-10T07:32:53.688Z,9.33
2022-08-10T07:35:23.972Z,19.50
2022-08-10T07:37:52.939Z,8.10
2022-08-10T07:40:21.805Z,9.23
2022-08-10T07:42:50.145Z,13.30
2022-08-10T07:45:17.888Z,8.47
2022-08-10T07:47:54.545Z,11.13
2022-08-10T07:50:25.588Z,6.43
2022-08-10T07:52:54.830Z,12.73
2022-08-10T07:56:04.785Z,9.50
2022-08-10T07:58:11.512Z,8.90
2022-08-10T08:00:40.142Z,7.70
2022-08-10T08:03:09.363Z,10.03
2022-08-10T08:05:58.624Z,5.70
2022-08-10T08:08:28.321Z,9.33
2022-08-10T08:10:56.752Z,10.40
2022-08-10T08:13:25.703Z,8.73
2022-08-10T08:16:21.452Z,10.93
2022-08-10T08:18:41.938Z,7.77
2022-08-10T08:24:04.977Z,7.60
2022-08-10T08:24:32.625Z,7.23
2022-08-10T08:27:02.775Z,12.63
2022-08-10T08:29:32.471Z,15.60
2022-08-10T08:32:02.372Z,8.83
2022-08-10T08:34:31.763Z,8.17
2022-08-10T08:37:01.677Z,9.30
2022-08-10T08:39:29.800Z,11.70
2022-08-10T08:42:11.975Z,10.73
2022-08-10T08:44:45.275Z,12.70
2022-08-10T08:48:05.011Z,6.07
2022-08-10T08:50:17.077Z,9.60
2022-08-10T08:52:51.046Z,4.50
2022-08-10T08:56:03.885Z,4.33
2022-08-10T08:58:27.640Z,8.40
2022-08-10T09:01:00.837Z,5.87
2022-08-10T09:03:39.459Z,10.33
2022-08-10T09:06:14.952Z,8.00
2022-08-10T09:08:57.671Z,11.53
2022-08-10T09:11:31.442Z,5.57
2022-08-10T09:14:01.889Z,7.07
2022-08-10T09:16:31.256Z,6.40
2022-08-10T09:19:04.458Z,5.83
2022-08-10T09:21:43.092Z,4.03
2022-08-10T09:24:19.865Z,4.30
2022-08-10T09:26:50.380Z,5.33
2022-08-10T09:29:21.278Z,10.07
2022-08-10T09:32:55.032Z,5.50
2022-08-10T09:36:22.289Z,4.70
2022-08-10T09:37:42.468Z,6.20
2022-08-10T09:41:00.416Z,4.90
2022-08-10T09:43:25.564Z,7.70
2022-08-10T09:46:00.079Z,8.73
2022-08-10T09:48:31.391Z,11.17
2022-08-10T09:53:56.941Z,11.00
2022-08-10T09:56:33.729Z,7.10
2022-08-10T09:59:29.178Z,3.73
2022-08-10T10:02:03.666Z,8.83
2022-08-10T10:04:39.908Z,5.90
2022-08-10T10:07:09.397Z,4.90
2022-08-10T10:09:40.039Z,6.97
2022-08-10T10:12:12.987Z,5.60
2022-08-10T10:15:09.753Z,4.53
2022-08-10T10:17:43.856Z,4.23
2022-08-10T10:20:16.295Z,5.27
2022-08-10T10:22:53.726Z,5.83
2022-08-10T10:25:24.317Z,10.50
2022-08-10T10:28:17.690Z,11.80
2022-08-10T10:30:48.866Z,9.20
2022-08-10T10:33:21.414Z,7.70
2022-08-10T10:35:52.145Z,11.97
2022-08-10T10:38:20.677Z,6.77
2022-08-10T10:40:50.473Z,10.03
2022-08-10T10:43:27.006Z,3.57
2022-08-10T10:46:01.806Z,8.73
2022-08-10T10:48:33.813Z,13.50
2022-08-10T10:51:08.445Z,6.03
2022-08-10T10:53:41.612Z,7.60
2022-08-10T10:56:16.449Z,6.80
2022-08-10T10:58:54.046Z,5.17
2022-08-10T11:01:26.808Z,4.77
2022-08-10T11:04:02.754Z,9.83
2022-08-10T11:06:40.882Z,6.13
2022-08-10T11:10:03.597Z,4.17
2022-08-10T11:12:04.750Z,9.40
2022-08-10T11:14:46.009Z,5.90
2022-08-10T11:17:18.486Z,4.37
2022-08-10T11:20:01.491Z,5.93
2022-08-10T11:22:36.633Z,4.00
2022-08-10T11:25:10.423Z,9.73
2022-08-10T11:27:41.946Z,9.20
2022-08-10T11:30:15.791Z,7.63
2022-08-10T11:32:47.713Z,9.50
2022-08-10T11:35:34.147Z,6.90
2022-08-10T11:38:28.408Z,5.53
2022-08-10T11:41:05.594Z,3.43
2022-08-10T11:43:52.620Z,6.07
2022-08-10T11:46:28.716Z,8.90
2022-08-10T11:49:04.062Z,8.80
2022-08-10T11:51:36.053Z,6.53
2022-08-10T11:54:06.322Z,4.43
2022-08-10T11:56:36.286Z,4.93
2022-08-10T11:59:21.246Z,5.90
2022-08-10T12:01:51.683Z,6.17
2022-08-10T12:04:21.341Z,6.10
2022-08-10T12:06:55.980Z,9.40
2022-08-10T12:10:10.883Z,5.97
2022-08-10T12:12:13.247Z,2.83
2022-08-10T12:14:44.339Z,4.27
2022-08-10T12:17:16.966Z,4.60
2022-08-10T12:20:02.132Z,6.67
2022-08-10T12:22:32.686Z,4.57
2022-08-10T12:25:01.807Z,6.23
2022-08-10T12:27:32.282Z,4.07
2022-08-10T12:30:03.114Z,4.10
2022-08-10T12:32:35.875Z,5.97
2022-08-10T12:35:07.443Z,6.37
2022-08-10T12:37:39.461Z,4.57
2022-08-10T12:44:03.679Z,5.50
2022-08-10T12:45:56.259Z,3.87
2022-08-10T12:48:31.164Z,6.40
2022-08-10T12:51:01.751Z,9.00
2022-08-10T12:53:36.597Z,3.53
2022-08-10T12:56:06.055Z,4.40
2022-08-10T12:58:58.766Z,7.23
2022-08-10T13:01:25.284Z,5.17
2022-08-10T13:04:22.637Z,9.50
2022-08-10T13:06:46.438Z,7.37
2022-08-10T13:09:14.296Z,7.80
2022-08-10T13:12:44.316Z,2.80
2022-08-10T13:14:34.743Z,6.63
2022-08-10T13:17:02.896Z,8.20
2022-08-10T13:19:56.302Z,8.30
2022-08-10T13:22:26.488Z,9.67
2022-08-10T13:24:55.574Z,5.57
2022-08-10T13:28:01.440Z,4.53
2022-08-10T13:30:15.448Z,3.40
2022-08-10T13:32:48.859Z,8.60
2022-08-10T13:35:18.906Z,13.37
2022-08-10T13:37:48.052Z,2.63
2022-08-10T13:40:17.193Z,7.67
2022-08-10T13:42:45.491Z,4.57
2022-08-10T13:45:14.513Z,5.00
2022-08-10T13:47:48.784Z,3.87
2022-08-10T13:50:35.000Z,9.50
2022-08-10T13:53:11.689Z,5.80
2022-08-10T13:55:53.355Z,4.50
2022-08-10T13:58:23.995Z,8.47
2022-08-10T14:00:51.807Z,11.53
2022-08-10T14:03:20.030Z,8.33
2022-08-10T14:05:51.138Z,7.30
2022-08-10T14:08:19.818Z,12.23
2022-08-10T14:11:08.484Z,4.60
2022-08-10T14:13:37.122Z,8.53
2022-08-10T14:16:06.930Z,7.60
2022-08-10T14:18:35.554Z,18.53
2022-08-10T14:21:04.857Z,7.70
2022-08-10T14:23:35.302Z,6.50
2022-08-10T14:26:08.995Z,4.10
2022-08-10T14:28:40.609Z,3.87
2022-08-10T14:31:10.523Z,6.40
2022-08-10T14:33:39.959Z,12.00
2022-08-10T14:36:23.850Z,4.83
2022-08-10T14:38:54.752Z,5.50
2022-08-10T14:42:02.545Z,4.87
2022-08-10T14:44:14.474Z,4.40
2022-08-10T14:46:45.017Z,6.00
2022-08-10T14:49:26.313Z,3.67
2022-08-10T14:52:01.049Z,5.43
2022-08-10T14:54:30.110Z,3.67
2022-08-10T14:57:11.250Z,5.17
2022-08-10T15:00:24.093Z,4.23
2022-08-10T15:02:38.569Z,7.40
2022-08-10T15:05:09.761Z,9.87
2022-08-10T15:07:39.445Z,5.77
2022-08-10T15:10:08.028Z,7.20
2022-08-10T15:12:38.646Z,6.47
2022-08-10T15:15:08.388Z,7.93
2022-08-10T15:17:39.447Z,4.37
2022-08-10T15:20:13.541Z,6.80
2022-08-10T15:22:46.505Z,4.30
2022-08-10T15:25:18.290Z,10.83
2022-08-10T15:27:53.410Z,14.70
2022-08-10T15:30:30.104Z,7.90
2022-08-10T15:33:21.493Z,7.27
2022-08-10T15:36:24.516Z,18.77
2022-08-10T15:38:58.326Z,5.93
2022-08-10T15:41:57.638Z,5.23
2022-08-10T15:44:27.134Z,7.20
2022-08-10T15:47:02.405Z,3.93
2022-08-10T15:49:32.583Z,7.60
2022-08-10T15:52:02.543Z,7.43
2022-08-10T15:54:34.558Z,9.27
2022-08-10T15:57:03.284Z,9.03
2022-08-10T15:59:33.261Z,8.63
2022-08-10T16:02:15.603Z,9.37
2022-08-10T16:04:48.528Z,5.47
2022-08-10T16:07:20.698Z,6.70
2022-08-10T16:10:24.790Z,10.93
2022-08-10T16:12:42.098Z,8.73
2022-08-10T16:15:12.452Z,18.47
2022-08-10T16:17:55.002Z,6.90
2022-08-10T16:20:27.172Z,11.43
2022-08-10T16:22:56.437Z,6.20
2022-08-10T16:25:48.241Z,4.70
2022-08-10T16:28:19.947Z,8.70
2022-08-10T16:30:53.992Z,5.10
2022-08-10T16:33:24.105Z,9.50
2022-08-10T16:35:58.075Z,11.37
2022-08-10T16:38:26.644Z,11.70
2022-08-10T16:40:56.267Z,12.30
2022-08-10T16:43:24.852Z,11.33
2022-08-10T16:45:54.596Z,7.37
2022-08-10T16:48:49.070Z,12.10
2022-08-10T16:51:14.794Z,12.83
2022-08-10T16:53:47.486Z,13.70
2022-08-10T16:56:17.389Z,10.47
2022-08-10T16:58:46.495Z,11.33
2022-08-10T17:01:18.120Z,19.97
2022-08-10T17:04:06.658Z,11.70
2022-08-10T17:06:37.105Z,26.00
2022-08-10T17:09:06.144Z,10.50
2022-08-10T17:11:36.523Z,5.00
2022-08-10T17:14:05.723Z,9.40
2022-08-10T17:16:35.142Z,6.77
2022-08-10T17:19:03.517Z,11.23
2022-08-10T17:21:36.926Z,10.20
2022-08-10T17:24:05.859Z,15.77
2022-08-10T17:26:37.328Z,6.63
2022-08-10T17:29:53.405Z,10.50
2022-08-10T17:32:00.274Z,9.40
2022-08-10T17:34:31.194Z,11.07
2022-08-10T17:37:00.985Z,9.77
2022-08-10T17:39:30.646Z,7.03
2022-08-10T17:42:01.942Z,6.67
2022-08-10T17:44:30.786Z,14.10
2022-08-10T17:46:59.126Z,11.27
2022-08-10T17:49:39.753Z,7.60
2022-08-10T17:52:09.053Z,9.27
2022-08-10T17:54:39.384Z,10.90
2022-08-10T17:57:10.062Z,10.10
2022-08-10T17:59:39.089Z,20.10
2022-08-10T18:02:09.365Z,11.07
2022-08-10T18:04:42.126Z,21.80
2022-08-10T18:07:11.520Z,19.37
2022-08-10T18:09:41.346Z,13.80
2022-08-10T18:12:17.744Z,14.07
2022-08-10T18:14:48.337Z,20.40
2022-08-10T18:17:19.617Z,21.43
2022-08-10T18:19:49.495Z,23.67
2022-08-10T18:22:19.099Z,16.50
2022-08-10T18:24:48.584Z,54.73
2022-08-10T18:27:18.358Z,30.50
2022-08-10T18:29:48.845Z,37.30
2022-08-10T18:32:16.934Z,44.03
2022-08-10T18:34:47.665Z,41.67
2022-08-10T18:37:19.970Z,36.63
2022-08-10T18:39:49.623Z,19.07
2022-08-10T18:42:22.310Z,85.53
2022-08-10T18:44:54.621Z,30.23
2022-08-10T18:47:30.312Z,34.97
2022-08-10T18:50:00.598Z,35.77
2022-08-10T18:52:30.702Z,32.40
2022-08-10T18:55:04.747Z,23.30
2022-08-10T18:57:56.803Z,28.70
2022-08-10T19:00:26.531Z,23.67
2022-08-10T19:03:22.638Z,25.60
2022-08-10T19:05:58.600Z,38.67
2022-08-10T19:08:50.199Z,27.80
2022-08-10T19:11:25.171Z,19.83
2022-08-10T19:13:59.588Z,33.30
2022-08-10T19:16:36.887Z,21.27
2022-08-10T19:19:21.880Z,39.43
2022-08-10T19:21:54.833Z,26.30
2022-08-10T19:24:26.215Z,22.27
2022-08-10T19:26:58.088Z,27.20
2022-08-10T19:30:08.859Z,19.83
2022-08-10T19:32:32.548Z,23.70
2022-08-10T19:38:00.579Z,24.90
2022-08-10T19:40:43.995Z,29.10
2022-08-10T19:43:30.909Z,29.63
2022-08-10T19:46:14.561Z,30.87
2022-08-10T19:48:45.169Z,26.47
2022-08-10T19:51:15.735Z,31.63
2022-08-10T19:53:51.927Z,37.63
2022-08-10T19:56:34.058Z,20.43
2022-08-10T19:59:05.643Z,25.03
2022-08-10T20:01:55.568Z,17.80
2022-08-10T20:04:27.759Z,14.57
2022-08-10T20:07:09.766Z,18.93
2022-08-10T20:09:42.535Z,37.60
2022-08-10T20:12:14.943Z,28.53
2022-08-10T20:14:48.146Z,20.10
2022-08-10T20:17:24.265Z,14.60
2022-08-10T20:19:55.182Z,26.93
2022-08-10T20:22:29.237Z,19.83
2022-08-10T20:25:02.610Z,15.73
2022-08-10T20:28:00.537Z,46.10
2022-08-10T20:30:24.617Z,26.07
2022-08-10T20:32:57.680Z,19.97
2022-08-10T20:35:26.669Z,13.37
2022-08-10T20:38:03.700Z,15.73
2022-08-10T20:40:35.188Z,15.20
2022-08-10T20:43:07.758Z,21.87
2022-08-10T20:46:05.060Z,20.93
2022-08-10T20:48:35.784Z,23.00
2022-08-10T20:51:06.382Z,24.93
2022-08-10T20:53:35.061Z,26.57
2022-08-10T20:56:09.440Z,29.93
2022-08-10T20:58:51.142Z,18.30
2022-08-10T21:01:19.788Z,23.73
2022-08-10T21:03:58.635Z,15.20
2022-08-10T21:06:44.508Z,17.27
2022-08-10T21:09:24.155Z,18.47
2022-08-10T21:11:57.173Z,9.50
2022-08-10T21:14:33.365Z,11.17
2022-08-10T21:17:10.232Z,14.53
2022-08-10T21:19:55.887Z,19.20
2022-08-10T21:22:29.317Z,13.80
2022-08-10T21:24:59.920Z,17.97
2022-08-10T21:27:42.655Z,20.50
2022-08-10T21:30:15.010Z,18.03
2022-08-10T21:32:48.828Z,19.10
2022-08-10T21:35:37.884Z,16.17
2022-08-10T21:38:10.169Z,24.53
2022-08-10T21:40:43.875Z,10.57
2022-08-10T21:43:57.671Z,14.37
2022-08-10T21:46:55.096Z,14.70
2022-08-10T21:49:51.980Z,12.20
2022-08-10T21:52:42.818Z,9.23
2022-08-10T21:55:57.129Z,9.00
2022-08-10T21:58:47.807Z,9.63
2022-08-10T22:01:39.608Z,7.70
2022-08-10T22:04:25.544Z,10.63
2022-08-10T22:07:11.712Z,15.50
2022-08-10T22:10:01.538Z,10.17
2022-08-10T22:12:48.810Z,21.43
2022-08-10T22:16:03.467Z,18.63
2022-08-10T22:19:01.433Z,12.50
2022-08-10T22:21:54.562Z,12.37
2022-08-10T22:24:45.400Z,10.80
2022-08-10T22:27:47.366Z,7.53
2022-08-10T22:31:22.844Z,6.90
2022-08-10T22:34:02.619Z,8.10
2022-08-10T22:36:53.823Z,6.23
2022-08-10T22:40:11.312Z,8.23
2022-08-10T22:42:58.315Z,7.50
2022-08-10T22:45:44.839Z,12.13
2022-08-10T22:48:33.236Z,7.10
2022-08-10T22:51:03.322Z,12.70
2022-08-10T22:53:49.337Z,11.93
2022-08-10T22:56:36.503Z,20.27
2022-08-10T22:59:07.147Z,8.27
2022-08-10T23:01:42.309Z,19.33
2022-08-10T23:04:34.878Z,20.27
2022-08-10T23:07:07.267Z,15.93
2022-08-10T23:09:36.318Z,35.00
2022-08-10T23:12:06.147Z,10.60
2022-08-10T23:14:37.735Z,25.93
2022-08-10T23:18:02.032Z,27.50
2022-08-10T23:20:19.474Z,16.47
2022-08-10T23:22:49.508Z,22.30
2022-08-10T23:25:19.821Z,18.70
2022-08-10T23:27:49.768Z,14.23
2022-08-10T23:30:32.451Z,11.80
2022-08-10T23:33:00.531Z,19.83
2022-08-10T23:36:27.798Z,15.10
2022-08-10T23:38:17.690Z,14.10
2022-08-10T23:40:47.223Z,14.40
2022-08-10T23:43:20.479Z,12.70
2022-08-10T23:45:54.532Z,21.40
2022-08-10T23:48:24.012Z,10.80
2022-08-10T23:50:58.536Z,16.53
2022-08-10T23:53:30.180Z,12.23
2022-08-10T23:56:07.334Z,14.23
2022-08-10T23:58:36.724Z,11.90
